createdAt,value
2022-09-12T00:00:03.387Z,985.87
2022-09-12T00:01:03.395Z,985.87
2022-09-12T00:02:03.458Z,985.93
2022-09-12T00:03:03.371Z,985.86
2022-09-12T00:04:03.370Z,985.82
2022-09-12T00:05:03.339Z,985.82
2022-09-12T00:06:03.351Z,985.82
2022-09-12T00:07:03.321Z,985.80
2022-09-12T00:08:03.310Z,985.84
2022-09-12T00:09:03.313Z,985.80
2022-09-12T00:10:03.273Z,985.77
2022-09-12T00:11:03.271Z,985.81
2022-09-12T00:12:03.262Z,985.79
2022-09-12T00:13:03.283Z,985.79
2022-09-12T00:14:03.962Z,985.81
2022-09-12T00:15:03.225Z,985.78
2022-09-12T00:16:03.213Z,985.83
2022-09-12T00:17:03.220Z,985.75
2022-09-12T00:18:03.203Z,985.78
2022-09-12T00:19:03.764Z,985.80
2022-09-12T00:20:03.196Z,985.82
2022-09-12T00:21:03.194Z,985.73
2022-09-12T00:22:03.143Z,985.79
2022-09-12T00:23:03.154Z,985.71
2022-09-12T00:24:03.114Z,985.74
2022-09-12T00:25:03.145Z,985.68
2022-09-12T00:26:03.095Z,985.78
2022-09-12T00:27:03.085Z,985.75
2022-09-12T00:28:03.088Z,985.72
2022-09-12T00:29:03.066Z,985.76
2022-09-12T00:30:03.109Z,985.73
2022-09-12T00:31:03.046Z,985.81
2022-09-12T00:32:03.036Z,985.78
2022-09-12T00:33:03.095Z,985.79
2022-09-12T00:34:03.017Z,985.79
2022-09-12T00:35:03.020Z,985.76
2022-09-12T00:36:02.997Z,985.81
2022-09-12T00:37:03.027Z,985.71
2022-09-12T00:38:02.987Z,985.69
2022-09-12T00:39:02.967Z,985.70
2022-09-12T00:40:02.997Z,985.71
2022-09-12T00:41:02.948Z,985.78
2022-09-12T00:42:02.930Z,985.70
2022-09-12T00:43:02.931Z,985.70
2022-09-12T00:44:02.904Z,985.64
2022-09-12T00:45:02.932Z,985.67
2022-09-12T00:46:02.918Z,985.66
2022-09-12T00:47:02.886Z,985.63
2022-09-12T00:48:02.871Z,985.63
2022-09-12T00:49:02.860Z,985.64
2022-09-12T00:50:02.851Z,985.66
2022-09-12T00:51:02.861Z,985.62
2022-09-12T00:52:02.880Z,985.61
2022-09-12T00:53:02.810Z,985.64
2022-09-12T00:54:02.790Z,985.61
2022-09-12T00:55:02.842Z,985.63
2022-09-12T00:56:02.797Z,985.60
2022-09-12T00:57:02.790Z,985.56
2022-09-12T00:58:02.760Z,985.58
2022-09-12T00:59:02.773Z,985.61
2022-09-12T01:00:02.829Z,985.57
2022-09-12T01:01:02.816Z,985.59
2022-09-12T01:02:03.002Z,985.56
2022-09-12T01:03:02.693Z,985.59
2022-09-12T01:04:02.682Z,985.59
2022-09-12T01:05:02.672Z,985.54
2022-09-12T01:06:02.681Z,985.56
2022-09-12T01:07:02.652Z,985.61
2022-09-12T01:08:02.683Z,985.55
2022-09-12T01:09:02.651Z,985.62
2022-09-12T01:10:02.641Z,985.59
2022-09-12T01:11:02.621Z,985.61
2022-09-12T01:12:02.594Z,985.62
2022-09-12T01:13:02.656Z,985.51
2022-09-12T01:14:02.574Z,985.49
2022-09-12T01:15:02.565Z,985.50
2022-09-12T01:16:02.595Z,985.46
2022-09-12T01:17:02.581Z,985.47
2022-09-12T01:18:02.715Z,985.47
2022-09-12T01:19:02.545Z,985.47
2022-09-12T01:20:02.519Z,985.40
2022-09-12T01:21:02.507Z,985.35
2022-09-12T01:22:02.510Z,985.36
2022-09-12T01:23:02.487Z,985.36
2022-09-12T01:24:02.476Z,985.29
2022-09-12T01:25:02.457Z,985.32
2022-09-12T01:26:02.450Z,985.36
2022-09-12T01:27:02.457Z,985.36
2022-09-12T01:28:02.439Z,985.33
2022-09-12T01:29:02.437Z,985.41
2022-09-12T01:30:02.428Z,985.29
2022-09-12T01:31:02.402Z,985.34
2022-09-12T01:32:02.416Z,985.33
2022-09-12T01:33:02.399Z,985.29
2022-09-12T01:34:02.358Z,985.29
2022-09-12T01:35:02.378Z,985.27
2022-09-12T01:36:02.359Z,985.30
2022-09-12T01:37:02.368Z,985.33
2022-09-12T01:38:02.309Z,985.27
2022-09-12T01:39:02.315Z,985.35
2022-09-12T01:40:02.373Z,985.33
2022-09-12T01:41:02.320Z,985.32
2022-09-12T01:42:02.280Z,985.35
2022-09-12T01:43:02.270Z,985.29
2022-09-12T01:44:02.248Z,985.30
2022-09-12T01:45:02.241Z,985.33
2022-09-12T01:46:02.324Z,985.33
2022-09-12T01:47:02.210Z,985.20
2022-09-12T01:48:02.232Z,985.26
2022-09-12T01:49:02.192Z,985.23
2022-09-12T01:50:02.181Z,985.27
2022-09-12T01:51:02.181Z,985.23
2022-09-12T01:52:02.191Z,985.18
2022-09-12T01:53:02.151Z,985.15
2022-09-12T01:54:02.141Z,985.22
2022-09-12T01:55:03.744Z,985.14
2022-09-12T01:56:02.112Z,985.18
2022-09-12T01:57:02.121Z,985.16
2022-09-12T01:58:02.113Z,985.21
2022-09-12T01:59:02.082Z,985.16
2022-09-12T02:00:02.074Z,985.19
2022-09-12T02:01:02.073Z,985.20
2022-09-12T02:02:02.088Z,985.27
2022-09-12T02:03:02.044Z,985.12
2022-09-12T02:04:02.024Z,985.14
2022-09-12T02:05:02.044Z,985.10
2022-09-12T02:06:02.025Z,985.14
2022-09-12T02:07:01.997Z,985.09
2022-09-12T02:08:02.004Z,985.17
2022-09-12T02:09:01.986Z,985.16
2022-09-12T02:10:01.977Z,985.14
2022-09-12T02:11:01.955Z,985.11
2022-09-12T02:12:01.956Z,985.10
2022-09-12T02:13:01.932Z,985.09
2022-09-12T02:14:01.925Z,985.08
2022-09-12T02:15:01.935Z,985.13
2022-09-12T02:16:01.896Z,985.07
2022-09-12T02:17:01.885Z,985.13
2022-09-12T02:18:01.910Z,985.07
2022-09-12T02:19:01.886Z,985.10
2022-09-12T02:20:01.878Z,985.04
2022-09-12T02:21:01.858Z,985.07
2022-09-12T02:22:01.908Z,985.08
2022-09-12T02:23:01.838Z,985.06
2022-09-12T02:24:01.817Z,985.04
2022-09-12T02:25:01.805Z,985.04
2022-09-12T02:26:01.798Z,985.01
2022-09-12T02:27:01.798Z,985.02
2022-09-12T02:28:01.779Z,985.04
2022-09-12T02:29:01.768Z,984.97
2022-09-12T02:30:01.748Z,985.05
2022-09-12T02:31:01.813Z,984.99
2022-09-12T02:32:01.751Z,984.95
2022-09-12T02:33:01.768Z,985.01
2022-09-12T02:34:01.829Z,985.03
2022-09-12T02:35:01.701Z,984.99
2022-09-12T02:36:01.690Z,985.09
2022-09-12T02:37:01.680Z,985.07
2022-09-12T02:38:01.684Z,985.00
2022-09-12T02:39:01.651Z,984.98
2022-09-12T02:40:01.685Z,985.05
2022-09-12T02:41:01.641Z,985.04
2022-09-12T02:42:01.633Z,985.01
2022-09-12T02:43:01.620Z,984.94
2022-09-12T02:44:01.612Z,985.00
2022-09-12T02:45:01.613Z,984.91
2022-09-12T02:46:01.710Z,984.93
2022-09-12T02:47:01.572Z,985.00
2022-09-12T02:48:01.561Z,984.96
2022-09-12T02:49:01.573Z,984.91
2022-09-12T02:50:01.536Z,984.99
2022-09-12T02:51:01.536Z,984.91
2022-09-12T02:52:01.552Z,984.94
2022-09-12T02:53:01.603Z,984.99
2022-09-12T02:54:01.503Z,984.94
2022-09-12T02:55:01.496Z,984.97
2022-09-12T02:56:01.473Z,984.93
2022-09-12T02:57:01.475Z,984.99
2022-09-12T02:58:01.454Z,984.97
2022-09-12T02:59:01.454Z,984.92
2022-09-12T03:00:01.424Z,984.95
2022-09-12T03:01:01.505Z,985.03
2022-09-12T03:02:01.431Z,984.98
2022-09-12T03:03:01.421Z,984.91
2022-09-12T03:04:01.387Z,984.90
2022-09-12T03:05:01.375Z,984.88
2022-09-12T03:06:01.385Z,984.92
2022-09-12T03:07:01.356Z,984.91
2022-09-12T03:08:01.335Z,985.02
2022-09-12T03:09:01.367Z,984.90
2022-09-12T03:10:01.324Z,984.93
2022-09-12T03:11:01.316Z,984.88
2022-09-12T03:12:01.326Z,984.89
2022-09-12T03:13:01.297Z,984.88
2022-09-12T03:14:01.277Z,984.86
2022-09-12T03:15:01.276Z,984.91
2022-09-12T03:16:01.259Z,984.97
2022-09-12T03:17:01.247Z,984.96
2022-09-12T03:18:01.238Z,984.96
2022-09-12T03:19:01.228Z,984.93
2022-09-12T03:20:01.228Z,984.99
2022-09-12T03:21:01.209Z,984.98
2022-09-12T03:22:01.208Z,984.92
2022-09-12T03:23:01.186Z,985.01
2022-09-12T03:24:01.170Z,985.00
2022-09-12T03:25:01.181Z,984.99
2022-09-12T03:26:01.150Z,985.02
2022-09-12T03:27:01.173Z,985.01
2022-09-12T03:28:01.129Z,984.97
2022-09-12T03:29:01.121Z,985.00
2022-09-12T03:30:01.131Z,984.97
2022-09-12T03:31:01.131Z,985.00
2022-09-12T03:32:01.101Z,984.97
2022-09-12T03:33:01.080Z,984.98
2022-09-12T03:34:01.079Z,985.02
2022-09-12T03:35:01.060Z,985.02
2022-09-12T03:36:01.042Z,985.02
2022-09-12T03:37:01.056Z,984.99
2022-09-12T03:38:01.022Z,985.05
2022-09-12T03:39:01.031Z,985.01
2022-09-12T03:40:01.044Z,984.98
2022-09-12T03:41:00.991Z,984.96
2022-09-12T03:42:00.984Z,985.00
2022-09-12T03:43:00.973Z,984.96
2022-09-12T03:44:00.963Z,984.96
2022-09-12T03:45:00.966Z,985.07
2022-09-12T03:46:01.015Z,985.05
2022-09-12T03:47:00.954Z,985.03
2022-09-12T03:48:00.914Z,984.99
2022-09-12T03:49:00.904Z,985.04
2022-09-12T03:50:00.924Z,985.01
2022-09-12T03:51:00.884Z,984.99
2022-09-12T03:52:00.882Z,984.95
2022-09-12T03:53:00.882Z,984.99
2022-09-12T03:54:00.855Z,984.95
2022-09-12T03:55:00.837Z,984.97
2022-09-12T03:56:00.845Z,984.97
2022-09-12T03:57:00.892Z,985.01
2022-09-12T03:58:00.796Z,984.94
2022-09-12T03:59:00.796Z,984.91
2022-09-12T04:00:00.785Z,984.96
2022-09-12T04:01:00.815Z,984.94
2022-09-12T04:02:00.795Z,985.00
2022-09-12T04:03:00.746Z,984.95
2022-09-12T04:04:00.736Z,984.96
2022-09-12T04:05:00.730Z,985.02
2022-09-12T04:06:00.718Z,985.00
2022-09-12T04:07:00.720Z,984.98
2022-09-12T04:08:00.696Z,985.04
2022-09-12T04:09:00.709Z,984.93
2022-09-12T04:10:00.706Z,984.96
2022-09-12T04:11:00.660Z,984.95
2022-09-12T04:12:00.667Z,984.92
2022-09-12T04:13:00.660Z,984.99
2022-09-12T04:14:00.659Z,984.93
2022-09-12T04:15:00.631Z,984.92
2022-09-12T04:16:00.610Z,984.96
2022-09-12T04:17:00.602Z,984.94
2022-09-12T04:18:05.605Z,985.02
2022-09-12T04:19:01.588Z,984.89
2022-09-12T04:20:00.589Z,984.98
2022-09-12T04:21:00.562Z,984.91
2022-09-12T04:22:00.559Z,984.99
2022-09-12T04:23:00.559Z,984.94
2022-09-12T04:24:00.521Z,984.92
2022-09-12T04:25:00.511Z,985.03
2022-09-12T04:26:00.520Z,985.00
2022-09-12T04:27:03.737Z,985.05
2022-09-12T04:28:01.492Z,985.01
2022-09-12T04:29:00.472Z,984.99
2022-09-12T04:30:01.212Z,984.98
2022-09-12T04:31:00.525Z,985.02
2022-09-12T04:32:00.443Z,985.02
2022-09-12T04:33:02.234Z,985.05
2022-09-12T04:34:00.413Z,985.03
2022-09-12T04:35:00.411Z,985.04
2022-09-12T04:36:00.392Z,985.06
2022-09-12T04:37:00.410Z,985.05
2022-09-12T04:38:00.373Z,985.03
2022-09-12T04:39:00.394Z,985.08
2022-09-12T04:40:00.445Z,985.04
2022-09-12T04:41:00.352Z,985.02
2022-09-12T04:42:00.337Z,985.02
2022-09-12T04:43:00.352Z,984.99
2022-09-12T04:44:00.324Z,984.96
2022-09-12T04:45:00.314Z,984.98
2022-09-12T04:46:00.327Z,985.00
2022-09-12T04:47:00.384Z,984.97
2022-09-12T04:48:00.265Z,984.98
2022-09-12T04:49:00.255Z,985.05
2022-09-12T04:50:00.259Z,985.04
2022-09-12T04:51:00.235Z,985.04
2022-09-12T04:52:00.225Z,984.97
2022-09-12T04:53:00.243Z,984.99
2022-09-12T04:54:00.207Z,984.94
2022-09-12T04:55:00.207Z,985.03
2022-09-12T04:56:00.196Z,984.97
2022-09-12T04:57:00.167Z,984.97
2022-09-12T04:58:00.156Z,984.97
2022-09-12T04:59:00.166Z,984.99
2022-09-12T05:00:03.844Z,984.96
2022-09-12T05:01:01.159Z,984.96
2022-09-12T05:02:00.141Z,984.96
2022-09-12T05:03:00.108Z,984.95
2022-09-12T05:04:00.126Z,985.00
2022-09-12T05:05:00.136Z,984.96
2022-09-12T05:06:00.108Z,985.00
2022-09-12T05:07:00.087Z,984.95
2022-09-12T05:08:00.069Z,985.00
2022-09-12T05:09:00.078Z,984.92
2022-09-12T05:10:00.032Z,984.98
2022-09-12T05:11:00.028Z,984.97
2022-09-12T05:12:04.539Z,984.96
2022-09-12T05:13:00.991Z,984.99
2022-09-12T05:13:59.989Z,985.00
2022-09-12T05:15:00.010Z,985.01
2022-09-12T05:15:59.999Z,985.00
2022-09-12T05:17:00.060Z,984.96
2022-09-12T05:17:59.975Z,985.01
2022-09-12T05:18:59.931Z,985.02
2022-09-12T05:20:00.022Z,984.97
2022-09-12T05:20:59.922Z,984.99
2022-09-12T05:21:59.919Z,985.00
2022-09-12T05:22:59.943Z,985.01
2022-09-12T05:23:59.921Z,984.95
2022-09-12T05:24:59.890Z,985.03
2022-09-12T05:25:59.860Z,984.97
2022-09-12T05:26:59.841Z,984.98
2022-09-12T05:27:59.831Z,984.99
2022-09-12T05:28:59.832Z,985.01
2022-09-12T05:29:59.881Z,985.02
2022-09-12T05:30:59.835Z,985.03
2022-09-12T05:31:59.793Z,985.03
2022-09-12T05:32:59.790Z,985.02
2022-09-12T05:33:59.804Z,985.04
2022-09-12T05:34:59.772Z,985.03
2022-09-12T05:35:59.743Z,985.06
2022-09-12T05:36:59.742Z,985.11
2022-09-12T05:37:59.803Z,985.11
2022-09-12T05:38:59.718Z,985.06
2022-09-12T05:39:59.750Z,985.05
2022-09-12T05:40:59.717Z,985.03
2022-09-12T05:41:59.733Z,985.07
2022-09-12T05:42:59.685Z,985.10
2022-09-12T05:43:59.674Z,985.04
2022-09-12T05:44:59.675Z,985.08
2022-09-12T05:45:59.669Z,985.08
2022-09-12T05:46:59.635Z,985.15
2022-09-12T05:47:59.615Z,985.12
2022-09-12T05:48:59.635Z,985.18
2022-09-12T05:49:59.615Z,985.14
2022-09-12T05:50:59.596Z,985.17
2022-09-12T05:51:59.616Z,985.15
2022-09-12T05:52:59.653Z,985.21
2022-09-12T05:53:59.555Z,985.20
2022-09-12T05:54:59.574Z,985.23
2022-09-12T05:55:59.564Z,985.20
2022-09-12T05:56:59.524Z,985.19
2022-09-12T05:57:59.528Z,985.28
2022-09-12T05:58:59.516Z,985.22
2022-09-12T05:59:59.530Z,985.22
2022-09-12T06:00:59.516Z,985.30
2022-09-12T06:01:59.531Z,985.25
2022-09-12T06:02:59.458Z,985.20
2022-09-12T06:03:59.448Z,985.20
2022-09-12T06:04:59.438Z,985.22
2022-09-12T06:05:59.478Z,985.14
2022-09-12T06:06:59.439Z,985.15
2022-09-12T06:07:59.447Z,985.18
2022-09-12T06:08:59.445Z,985.19
2022-09-12T06:09:59.378Z,985.18
2022-09-12T06:11:02.272Z,985.11
2022-09-12T06:11:59.369Z,985.08
2022-09-12T06:12:59.370Z,985.09
2022-09-12T06:13:59.349Z,985.10
2022-09-12T06:14:59.330Z,985.03
2022-09-12T06:15:59.351Z,985.11
2022-09-12T06:16:59.360Z,985.11
2022-09-12T06:17:59.292Z,985.13
2022-09-12T06:18:59.303Z,985.07
2022-09-12T06:19:59.270Z,985.10
2022-09-12T06:20:59.317Z,985.09
2022-09-12T06:21:59.303Z,985.07
2022-09-12T06:22:59.270Z,985.10
2022-09-12T06:23:59.258Z,985.08
2022-09-12T06:24:59.259Z,985.10
2022-09-12T06:25:59.671Z,985.11
2022-09-12T06:26:59.221Z,985.14
2022-09-12T06:27:59.241Z,985.08
2022-09-12T06:28:59.172Z,985.06
2022-09-12T06:29:59.173Z,985.09
2022-09-12T06:30:59.174Z,985.06
2022-09-12T06:31:59.181Z,985.06
2022-09-12T06:32:59.140Z,985.07
2022-09-12T06:33:59.123Z,985.03
2022-09-12T06:34:59.133Z,985.03
2022-09-12T06:35:59.104Z,984.95
2022-09-12T06:36:59.094Z,985.01
2022-09-12T06:37:59.084Z,985.04
2022-09-12T06:38:59.094Z,985.04
2022-09-12T06:39:59.174Z,985.07
2022-09-12T06:40:59.052Z,985.04
2022-09-12T06:41:59.065Z,985.07
2022-09-12T06:42:59.023Z,985.01
2022-09-12T06:44:00.056Z,985.01
2022-09-12T06:44:59.004Z,985.02
2022-09-12T06:45:59.010Z,985.03
2022-09-12T06:46:59.005Z,985.07
2022-09-12T06:47:59.076Z,985.07
2022-09-12T06:48:58.996Z,985.08
2022-09-12T06:49:59.005Z,985.05
2022-09-12T06:50:58.937Z,985.07
2022-09-12T06:51:58.924Z,985.12
2022-09-12T06:52:58.936Z,985.08
2022-09-12T06:53:58.907Z,985.11
2022-09-12T06:54:58.957Z,985.16
2022-09-12T06:55:58.895Z,985.06
2022-09-12T06:56:58.889Z,985.11
2022-09-12T06:57:58.865Z,985.13
2022-09-12T06:58:58.868Z,985.17
2022-09-12T06:59:58.861Z,985.19
2022-09-12T07:00:59.183Z,985.16
2022-09-12T07:01:58.951Z,985.19
2022-09-12T07:02:58.842Z,985.22
2022-09-12T07:03:58.808Z,985.20
2022-09-12T07:04:58.807Z,985.16
2022-09-12T07:05:58.830Z,985.15
2022-09-12T07:06:58.788Z,985.12
2022-09-12T07:07:58.779Z,985.15
2022-09-12T07:08:58.739Z,985.15
2022-09-12T07:09:58.741Z,985.12
2022-09-12T07:10:58.755Z,985.12
2022-09-12T07:11:58.720Z,985.06
2022-09-12T07:12:58.751Z,985.06
2022-09-12T07:13:58.700Z,985.10
2022-09-12T07:14:58.679Z,985.06
2022-09-12T07:15:58.687Z,985.09
2022-09-12T07:16:59.408Z,985.06
2022-09-12T07:17:58.670Z,985.04
2022-09-12T07:18:58.670Z,985.10
2022-09-12T07:19:58.633Z,985.00
2022-09-12T07:20:58.632Z,985.06
2022-09-12T07:21:58.919Z,985.06
2022-09-12T07:22:58.612Z,985.04
2022-09-12T07:23:58.613Z,985.10
2022-09-12T07:24:58.591Z,985.07
2022-09-12T07:25:58.572Z,985.08
2022-09-12T07:26:58.584Z,985.06
2022-09-12T07:27:58.543Z,985.06
2022-09-12T07:29:18.610Z,985.12
2022-09-12T07:29:59.588Z,985.14
2022-09-12T07:30:58.540Z,985.17
2022-09-12T07:31:58.512Z,985.10
2022-09-12T07:32:58.485Z,985.11
2022-09-12T07:33:58.491Z,985.04
2022-09-12T07:34:58.465Z,985.08
2022-09-12T07:35:58.543Z,985.12
2022-09-12T07:36:58.444Z,985.08
2022-09-12T07:37:58.474Z,985.11
2022-09-12T07:38:58.445Z,985.11
2022-09-12T07:39:58.533Z,985.12
2022-09-12T07:40:58.407Z,985.10
2022-09-12T07:41:58.396Z,985.10
2022-09-12T07:42:58.366Z,985.10
2022-09-12T07:43:58.366Z,985.07
2022-09-12T07:44:58.415Z,985.10
2022-09-12T07:45:58.396Z,985.08
2022-09-12T07:46:58.335Z,985.07
2022-09-12T07:47:58.328Z,985.10
2022-09-12T07:48:58.341Z,985.11
2022-09-12T07:49:58.352Z,985.11
2022-09-12T07:50:58.288Z,985.10
2022-09-12T07:51:58.283Z,985.15
2022-09-12T07:52:58.267Z,985.12
2022-09-12T07:53:58.300Z,985.10
2022-09-12T07:54:58.248Z,985.09
2022-09-12T07:55:58.319Z,985.07
2022-09-12T07:56:58.227Z,985.06
2022-09-12T07:57:58.209Z,985.07
2022-09-12T07:58:58.243Z,985.11
2022-09-12T07:59:58.198Z,985.09
2022-09-12T08:00:58.180Z,985.05
2022-09-12T08:01:58.173Z,985.04
2022-09-12T08:02:58.157Z,985.06
2022-09-12T08:03:58.152Z,985.10
2022-09-12T08:04:58.159Z,985.09
2022-09-12T08:05:58.139Z,985.06
2022-09-12T08:06:58.111Z,985.08
2022-09-12T08:07:58.123Z,985.07
2022-09-12T08:08:58.115Z,985.11
2022-09-12T08:09:58.115Z,985.11
2022-09-12T08:10:58.145Z,985.07
2022-09-12T08:11:58.061Z,985.11
2022-09-12T08:12:58.043Z,985.11
2022-09-12T08:13:58.199Z,985.13
2022-09-12T08:15:05.123Z,985.11
2022-09-12T08:15:58.081Z,985.17
2022-09-12T08:16:58.041Z,985.09
2022-09-12T08:17:58.020Z,985.05
2022-09-12T08:18:57.988Z,985.02
2022-09-12T08:19:58.534Z,984.97
2022-09-12T08:20:57.961Z,984.95
2022-09-12T08:21:57.995Z,984.93
2022-09-12T08:22:57.935Z,984.99
2022-09-12T08:23:58.004Z,984.98
2022-09-12T08:24:57.924Z,984.96
2022-09-12T08:25:57.934Z,984.96
2022-09-12T08:26:57.894Z,984.97
2022-09-12T08:27:57.884Z,984.99
2022-09-12T08:28:57.894Z,984.97
2022-09-12T08:29:57.868Z,984.90
2022-09-12T08:30:57.883Z,984.92
2022-09-12T08:31:57.865Z,984.90
2022-09-12T08:32:57.826Z,984.96
2022-09-12T08:33:57.827Z,984.96
2022-09-12T08:34:57.804Z,984.89
2022-09-12T08:35:57.863Z,984.96
2022-09-12T08:36:57.826Z,984.90
2022-09-12T08:37:57.788Z,984.94
2022-09-12T08:38:59.877Z,984.95
2022-09-12T08:39:57.798Z,985.02
2022-09-12T08:40:57.740Z,985.00
2022-09-12T08:41:57.792Z,985.00
2022-09-12T08:42:57.719Z,985.01
2022-09-12T08:43:57.728Z,984.98
2022-09-12T08:44:57.688Z,985.00
2022-09-12T08:45:57.734Z,984.98
2022-09-12T08:46:57.702Z,984.98
2022-09-12T08:47:57.683Z,984.95
2022-09-12T08:48:57.657Z,984.93
2022-09-12T08:49:57.647Z,984.89
2022-09-12T08:50:57.640Z,984.90
2022-09-12T08:51:57.682Z,984.87
2022-09-12T08:52:57.641Z,984.85
2022-09-12T08:53:57.612Z,984.89
2022-09-12T08:54:57.622Z,984.76
2022-09-12T08:55:57.591Z,984.73
2022-09-12T08:56:57.602Z,984.77
2022-09-12T08:57:57.562Z,984.70
2022-09-12T08:58:57.563Z,984.74
2022-09-12T08:59:57.554Z,984.73
2022-09-12T09:00:57.523Z,984.80
2022-09-12T09:01:57.622Z,984.72
2022-09-12T09:02:57.546Z,984.72
2022-09-12T09:03:57.547Z,984.77
2022-09-12T09:04:57.493Z,984.74
2022-09-12T09:05:57.474Z,984.78
2022-09-12T09:06:57.464Z,984.77
2022-09-12T09:07:57.465Z,984.76
2022-09-12T09:08:57.454Z,984.74
2022-09-12T09:09:57.424Z,984.72
2022-09-12T09:10:57.414Z,984.77
2022-09-12T09:11:57.435Z,984.82
2022-09-12T09:12:57.412Z,984.72
2022-09-12T09:13:59.220Z,984.74
2022-09-12T09:14:57.385Z,984.74
2022-09-12T09:15:57.410Z,984.69
2022-09-12T09:16:57.346Z,984.66
2022-09-12T09:17:57.374Z,984.68
2022-09-12T09:18:57.347Z,984.63
2022-09-12T09:19:57.349Z,984.64
2022-09-12T09:20:57.339Z,984.67
2022-09-12T09:21:57.297Z,984.68
2022-09-12T09:22:57.310Z,984.66
2022-09-12T09:23:57.330Z,984.72
2022-09-12T09:24:57.276Z,984.66
2022-09-12T09:25:57.247Z,984.72
2022-09-12T09:26:57.247Z,984.70
2022-09-12T09:27:57.258Z,984.69
2022-09-12T09:28:57.258Z,984.62
2022-09-12T09:29:57.214Z,984.61
2022-09-12T09:30:57.244Z,984.62
2022-09-12T09:31:57.190Z,984.62
2022-09-12T09:32:57.182Z,984.58
2022-09-12T09:33:57.250Z,984.66
2022-09-12T09:34:57.170Z,984.62
2022-09-12T09:35:57.194Z,984.60
2022-09-12T09:36:57.130Z,984.59
2022-09-12T09:37:58.810Z,984.65
2022-09-12T09:38:57.102Z,984.61
2022-09-12T09:39:57.127Z,984.63
2022-09-12T09:40:57.122Z,984.65
2022-09-12T09:41:57.103Z,984.65
2022-09-12T09:42:57.072Z,984.64
2022-09-12T09:43:57.109Z,984.63
2022-09-12T09:44:57.073Z,984.64
2022-09-12T09:45:57.069Z,984.65
2022-09-12T09:46:57.025Z,984.69
2022-09-12T09:47:57.029Z,984.61
2022-09-12T09:48:57.021Z,984.65
2022-09-12T09:49:57.014Z,984.61
2022-09-12T09:50:56.982Z,984.67
2022-09-12T09:51:58.851Z,984.61
2022-09-12T09:52:56.962Z,984.60
2022-09-12T09:53:56.955Z,984.61
2022-09-12T09:54:56.945Z,984.58
2022-09-12T09:55:56.936Z,984.60
2022-09-12T09:56:56.926Z,984.67
2022-09-12T09:57:56.926Z,984.61
2022-09-12T09:58:56.906Z,984.62
2022-09-12T09:59:56.899Z,984.65
2022-09-12T10:00:56.895Z,984.63
2022-09-12T10:01:56.941Z,984.64
2022-09-12T10:02:56.905Z,984.67
2022-09-12T10:03:56.857Z,984.57
2022-09-12T10:04:56.848Z,984.51
2022-09-12T10:05:56.860Z,984.51
2022-09-12T10:06:56.842Z,984.46
2022-09-12T10:07:56.818Z,984.44
2022-09-12T10:08:56.818Z,984.43
2022-09-12T10:09:56.800Z,984.50
2022-09-12T10:10:56.790Z,984.48
2022-09-12T10:11:56.800Z,984.43
2022-09-12T10:12:56.750Z,984.42
2022-09-12T10:13:56.764Z,984.44
2022-09-12T10:14:56.731Z,984.42
2022-09-12T10:15:56.766Z,984.41
2022-09-12T10:16:56.708Z,984.37
2022-09-12T10:17:56.731Z,984.39
2022-09-12T10:18:56.690Z,984.41
2022-09-12T10:20:17.424Z,984.42
2022-09-12T10:20:57.692Z,984.36
2022-09-12T10:21:56.653Z,984.36
2022-09-12T10:22:56.670Z,984.33
2022-09-12T10:23:56.684Z,984.38
2022-09-12T10:24:56.624Z,984.41
2022-09-12T10:25:56.694Z,984.47
2022-09-12T10:26:57.166Z,984.40
2022-09-12T10:27:56.709Z,984.42
2022-09-12T10:28:56.608Z,984.45
2022-09-12T10:29:56.555Z,984.42
2022-09-12T10:30:56.593Z,984.43
2022-09-12T10:31:56.545Z,984.38
2022-09-12T10:32:56.556Z,984.35
2022-09-12T10:33:56.515Z,984.36
2022-09-12T10:34:56.626Z,984.35
2022-09-12T10:35:56.535Z,984.32
2022-09-12T10:36:56.505Z,984.31
2022-09-12T10:37:56.496Z,984.30
2022-09-12T10:38:56.457Z,984.25
2022-09-12T10:39:56.518Z,984.29
2022-09-12T10:40:56.468Z,984.24
2022-09-12T10:41:56.427Z,984.20
2022-09-12T10:42:56.409Z,984.24
2022-09-12T10:43:56.465Z,984.24
2022-09-12T10:44:56.429Z,984.21
2022-09-12T10:45:56.467Z,984.15
2022-09-12T10:46:56.457Z,984.18
2022-09-12T10:47:56.360Z,984.09
2022-09-12T10:48:56.351Z,984.11
2022-09-12T10:49:56.371Z,984.08
2022-09-12T10:50:56.331Z,984.07
2022-09-12T10:51:56.352Z,984.09
2022-09-12T10:52:56.332Z,984.04
2022-09-12T10:53:56.346Z,984.12
2022-09-12T10:54:56.282Z,984.13
2022-09-12T10:55:56.281Z,984.11
2022-09-12T10:56:56.263Z,984.09
2022-09-12T10:57:56.262Z,984.10
2022-09-12T10:58:56.263Z,984.07
2022-09-12T10:59:56.234Z,984.05
2022-09-12T11:00:56.222Z,984.02
2022-09-12T11:01:56.255Z,984.10
2022-09-12T11:02:56.215Z,983.98
2022-09-12T11:03:56.195Z,983.97
2022-09-12T11:04:56.183Z,983.95
2022-09-12T11:05:56.202Z,983.96
2022-09-12T11:06:56.166Z,983.95
2022-09-12T11:07:56.286Z,983.94
2022-09-12T11:08:56.137Z,983.92
2022-09-12T11:09:56.127Z,983.96
2022-09-12T11:10:56.138Z,983.95
2022-09-12T11:11:56.131Z,983.98
2022-09-12T11:12:56.108Z,983.98
2022-09-12T11:13:56.087Z,983.90
2022-09-12T11:14:56.078Z,983.83
2022-09-12T11:15:56.134Z,983.88
2022-09-12T11:16:56.078Z,983.84
2022-09-12T11:17:56.071Z,983.79
2022-09-12T11:18:56.098Z,983.77
2022-09-12T11:19:56.019Z,983.72
2022-09-12T11:20:56.011Z,983.64
2022-09-12T11:21:56.000Z,983.70
2022-09-12T11:22:56.010Z,983.66
2022-09-12T11:23:55.984Z,983.71
2022-09-12T11:24:56.007Z,983.70
2022-09-12T11:25:55.964Z,983.67
2022-09-12T11:26:56.036Z,983.59
2022-09-12T11:27:55.941Z,983.60
2022-09-12T11:28:55.942Z,983.62
2022-09-12T11:29:55.945Z,983.57
2022-09-12T11:30:55.956Z,983.54
2022-09-12T11:31:55.894Z,983.51
2022-09-12T11:32:55.884Z,983.55
2022-09-12T11:33:56.942Z,983.60
2022-09-12T11:34:55.878Z,983.58
2022-09-12T11:35:55.866Z,983.57
2022-09-12T11:36:55.855Z,983.59
2022-09-12T11:37:55.834Z,983.57
2022-09-12T11:38:55.856Z,983.54
2022-09-12T11:39:56.189Z,983.51
2022-09-12T11:40:55.857Z,983.55
2022-09-12T11:41:55.787Z,983.47
2022-09-12T11:42:55.787Z,983.50
2022-09-12T11:43:55.786Z,983.52
2022-09-12T11:44:55.759Z,983.47
2022-09-12T11:45:55.789Z,983.49
2022-09-12T11:46:55.748Z,983.49
2022-09-12T11:47:55.711Z,983.49
2022-09-12T11:48:55.723Z,983.53
2022-09-12T11:49:55.720Z,983.33
2022-09-12T11:50:55.710Z,983.38
2022-09-12T11:51:55.680Z,983.42
2022-09-12T11:52:55.682Z,983.39
2022-09-12T11:53:56.366Z,983.38
2022-09-12T11:54:55.693Z,983.38
2022-09-12T11:55:55.687Z,983.38
2022-09-12T11:56:55.637Z,983.33
2022-09-12T11:57:55.612Z,983.30
2022-09-12T11:58:55.629Z,983.29
2022-09-12T11:59:55.582Z,983.27
2022-09-12T12:00:55.624Z,983.27
2022-09-12T12:01:55.604Z,983.32
2022-09-12T12:02:55.555Z,983.27
2022-09-12T12:03:55.598Z,983.28
2022-09-12T12:04:55.535Z,983.23
2022-09-12T12:05:55.538Z,983.31
2022-09-12T12:06:55.524Z,983.25
2022-09-12T12:07:55.505Z,983.23
2022-09-12T12:08:55.517Z,983.18
2022-09-12T12:09:55.477Z,983.20
2022-09-12T12:10:55.501Z,983.18
2022-09-12T12:11:55.478Z,983.18
2022-09-12T12:12:55.462Z,983.17
2022-09-12T12:13:55.478Z,983.21
2022-09-12T12:14:55.429Z,983.13
2022-09-12T12:15:55.522Z,983.14
2022-09-12T12:16:55.409Z,983.15
2022-09-12T12:17:55.401Z,983.04
2022-09-12T12:18:55.422Z,983.08
2022-09-12T12:19:55.383Z,983.02
2022-09-12T12:20:55.374Z,983.00
2022-09-12T12:21:55.382Z,982.94
2022-09-12T12:22:55.379Z,982.93
2022-09-12T12:23:55.360Z,982.89
2022-09-12T12:24:55.335Z,982.89
2022-09-12T12:25:55.331Z,982.95
2022-09-12T12:26:55.305Z,982.92
2022-09-12T12:27:55.295Z,982.84